sensor_id;sensor_type;location;lat;lon;timestamp;P1;durP1;ratioP1;P2;durP2;ratioP2
15635;SDS011;7917;50.818;6.972;2023-10-13T00:02:09;10.45;;;7.93;;
15635;SDS011;7917;50.818;6.972;2023-10-13T00:04:36;14.30;;;8.27;;
15635;SDS011;7917;50.818;6.972;2023-10-13T00:07:07;12.27;;;8.05;;
15635;SDS011;7917;50.818;6.972;2023-10-13T00:09:34;14.77;;;8.68;;
15635;SDS011;7917;50.818;6.972;2023-10-13T00:12:03;11.50;;;8.70;;
15635;SDS011;7917;50.818;6.972;2023-10-13T00:14:34;14.95;;;7.95;;
15635;SDS011;7917;50.818;6.972;2023-10-13T00:17:02;10.38;;;8.20;;
15635;SDS011;7917;50.818;6.972;2023-10-13T00:19:29;10.35;;;7.97;;
15635;SDS011;7917;50.818;6.972;2023-10-13T00:22:03;10.43;;;7.95;;
15635;SDS011;7917;50.818;6.972;2023-10-13T00:24:35;9.18;;;7.40;;
15635;SDS011;7917;50.818;6.972;2023-10-13T00:27:11;9.35;;;7.90;;
15635;SDS011;7917;50.818;6.972;2023-10-13T00:29:55;13.38;;;8.40;;
15635;SDS011;7917;50.818;6.972;2023-10-13T00:32:41;12.93;;;8.77;;
15635;SDS011;7917;50.818;6.972;2023-10-13T00:35:09;16.40;;;7.80;;
15635;SDS011;7917;50.818;6.972;2023-10-13T00:37:38;12.07;;;7.72;;
15635;SDS011;7917;50.818;6.972;2023-10-13T00:40:10;10.57;;;8.27;;
15635;SDS011;7917;50.818;6.972;2023-10-13T00:42:45;11.93;;;8.32;;
15635;SDS011;7917;50.818;6.972;2023-10-13T00:45:16;11.98;;;8.32;;
15635;SDS011;7917;50.818;6.972;2023-10-13T00:47:43;13.70;;;8.43;;
15635;SDS011;7917;50.818;6.972;2023-10-13T00:50:14;14.70;;;8.70;;
15635;SDS011;7917;50.818;6.972;2023-10-13T00:52:43;13.93;;;9.30;;
15635;SDS011;7917;50.818;6.972;2023-10-13T00:55:16;14.02;;;8.68;;
15635;SDS011;7917;50.818;6.972;2023-10-13T00:57:47;13.52;;;9.20;;
15635;SDS011;7917;50.818;6.972;2023-10-13T01:00:18;10.75;;;8.18;;
15635;SDS011;7917;50.818;6.972;2023-10-13T01:02:51;13.30;;;9.13;;
15635;SDS011;7917;50.818;6.972;2023-10-13T01:05:21;13.88;;;8.23;;
15635;SDS011;7917;50.818;6.972;2023-10-13T01:07:49;13.70;;;8.93;;
15635;SDS011;7917;50.818;6.972;2023-10-13T01:10:18;12.23;;;8.50;;
15635;SDS011;7917;50.818;6.972;2023-10-13T01:12:45;12.68;;;8.85;;
15635;SDS011;7917;50.818;6.972;2023-10-13T01:15:12;13.20;;;8.50;;
15635;SDS011;7917;50.818;6.972;2023-10-13T01:17:43;12.02;;;8.77;;
15635;SDS011;7917;50.818;6.972;2023-10-13T01:20:11;15.32;;;8.95;;
15635;SDS011;7917;50.818;6.972;2023-10-13T01:22:45;15.02;;;8.98;;
15635;SDS011;7917;50.818;6.972;2023-10-13T01:25:22;14.65;;;8.90;;
15635;SDS011;7917;50.818;6.972;2023-10-13T01:27:51;13.95;;;8.80;;
15635;SDS011;7917;50.818;6.972;2023-10-13T01:30:18;19.30;;;9.05;;
15635;SDS011;7917;50.818;6.972;2023-10-13T01:32:48;15.52;;;8.70;;
15635;SDS011;7917;50.818;6.972;2023-10-13T01:35:16;16.35;;;9.30;;
15635;SDS011;7917;50.818;6.972;2023-10-13T01:37:44;11.52;;;8.50;;
15635;SDS011;7917;50.818;6.972;2023-10-13T01:40:11;13.82;;;9.45;;
15635;SDS011;7917;50.818;6.972;2023-10-13T01:42:38;12.85;;;9.25;;
15635;SDS011;7917;50.818;6.972;2023-10-13T01:45:06;12.25;;;9.55;;
15635;SDS011;7917;50.818;6.972;2023-10-13T01:47:52;14.10;;;9.38;;
15635;SDS011;7917;50.818;6.972;2023-10-13T01:50:19;15.80;;;9.60;;
15635;SDS011;7917;50.818;6.972;2023-10-13T01:52:46;15.38;;;10.07;;
15635;SDS011;7917;50.818;6.972;2023-10-13T01:55:16;15.68;;;10.43;;
15635;SDS011;7917;50.818;6.972;2023-10-13T01:57:45;23.23;;;10.02;;
15635;SDS011;7917;50.818;6.972;2023-10-13T02:00:13;17.92;;;9.75;;
15635;SDS011;7917;50.818;6.972;2023-10-13T02:02:44;13.82;;;9.70;;
15635;SDS011;7917;50.818;6.972;2023-10-13T02:05:15;15.65;;;9.82;;
15635;SDS011;7917;50.818;6.972;2023-10-13T02:07:42;16.23;;;9.48;;
15635;SDS011;7917;50.818;6.972;2023-10-13T02:10:11;16.52;;;9.60;;
15635;SDS011;7917;50.818;6.972;2023-10-13T02:12:37;14.23;;;9.35;;
15635;SDS011;7917;50.818;6.972;2023-10-13T02:15:09;13.75;;;9.50;;
15635;SDS011;7917;50.818;6.972;2023-10-13T02:17:38;12.85;;;10.10;;
15635;SDS011;7917;50.818;6.972;2023-10-13T02:20:07;17.48;;;8.90;;
15635;SDS011;7917;50.818;6.972;2023-10-13T02:22:40;13.70;;;9.75;;
15635;SDS011;7917;50.818;6.972;2023-10-13T02:25:15;16.33;;;9.63;;
15635;SDS011;7917;50.818;6.972;2023-10-13T02:27:42;18.55;;;11.18;;
15635;SDS011;7917;50.818;6.972;2023-10-13T02:30:14;14.45;;;10.73;;
15635;SDS011;7917;50.818;6.972;2023-10-13T02:32:41;19.60;;;10.85;;
15635;SDS011;7917;50.818;6.972;2023-10-13T02:35:09;16.58;;;10.27;;
15635;SDS011;7917;50.818;6.972;2023-10-13T02:37:41;15.68;;;10.27;;
15635;SDS011;7917;50.818;6.972;2023-10-13T02:40:10;15.88;;;10.13;;
15635;SDS011;7917;50.818;6.972;2023-10-13T02:42:37;12.65;;;10.18;;
15635;SDS011;7917;50.818;6.972;2023-10-13T02:45:06;15.32;;;10.68;;
15635;SDS011;7917;50.818;6.972;2023-10-13T02:47:39;21.63;;;10.82;;
15635;SDS011;7917;50.818;6.972;2023-10-13T02:50:08;17.83;;;11.20;;
15635;SDS011;7917;50.818;6.972;2023-10-13T02:52:39;14.00;;;10.27;;
15635;SDS011;7917;50.818;6.972;2023-10-13T02:55:07;13.43;;;10.85;;
15635;SDS011;7917;50.818;6.972;2023-10-13T02:57:39;15.50;;;10.48;;
15635;SDS011;7917;50.818;6.972;2023-10-13T03:03:33;17.75;;;10.57;;
15635;SDS011;7917;50.818;6.972;2023-10-13T03:06:14;16.70;;;9.90;;
15635;SDS011;7917;50.818;6.972;2023-10-13T03:08:41;14.20;;;10.68;;
15635;SDS011;7917;50.818;6.972;2023-10-13T03:11:11;18.70;;;10.13;;
15635;SDS011;7917;50.818;6.972;2023-10-13T03:13:39;17.52;;;10.43;;
15635;SDS011;7917;50.818;6.972;2023-10-13T03:16:18;18.02;;;10.60;;
15635;SDS011;7917;50.818;6.972;2023-10-13T03:18:48;15.32;;;10.80;;
15635;SDS011;7917;50.818;6.972;2023-10-13T03:21:22;15.95;;;10.13;;
15635;SDS011;7917;50.818;6.972;2023-10-13T03:23:57;17.38;;;11.23;;
15635;SDS011;7917;50.818;6.972;2023-10-13T03:26:32;17.35;;;11.10;;
15635;SDS011;7917;50.818;6.972;2023-10-13T03:29:02;16.77;;;10.65;;
15635;SDS011;7917;50.818;6.972;2023-10-13T03:31:32;22.60;;;11.70;;
15635;SDS011;7917;50.818;6.972;2023-10-13T03:34:04;14.00;;;10.70;;
15635;SDS011;7917;50.818;6.972;2023-10-13T03:36:37;18.13;;;11.90;;
15635;SDS011;7917;50.818;6.972;2023-10-13T03:39:23;14.20;;;10.65;;
15635;SDS011;7917;50.818;6.972;2023-10-13T03:41:56;18.90;;;11.10;;
15635;SDS011;7917;50.818;6.972;2023-10-13T03:44:27;15.93;;;11.32;;
15635;SDS011;7917;50.818;6.972;2023-10-13T03:46:57;14.77;;;11.43;;
15635;SDS011;7917;50.818;6.972;2023-10-13T03:49:43;17.63;;;11.43;;
15635;SDS011;7917;50.818;6.972;2023-10-13T03:52:16;17.88;;;11.27;;
15635;SDS011;7917;50.818;6.972;2023-10-13T03:54:48;18.50;;;11.82;;
15635;SDS011;7917;50.818;6.972;2023-10-13T03:57:20;20.58;;;12.02;;
15635;SDS011;7917;50.818;6.972;2023-10-13T03:59:54;20.88;;;11.43;;
15635;SDS011;7917;50.818;6.972;2023-10-13T04:02:23;17.67;;;11.10;;
15635;SDS011;7917;50.818;6.972;2023-10-13T04:04:55;17.10;;;10.98;;
15635;SDS011;7917;50.818;6.972;2023-10-13T04:07:34;22.63;;;11.45;;
15635;SDS011;7917;50.818;6.972;2023-10-13T04:10:31;15.52;;;11.80;;
15635;SDS011;7917;50.818;6.972;2023-10-13T04:13:19;23.17;;;11.85;;
15635;SDS011;7917;50.818;6.972;2023-10-13T04:16:07;15.43;;;10.90;;
15635;SDS011;7917;50.818;6.972;2023-10-13T04:18:58;16.35;;;11.68;;
15635;SDS011;7917;50.818;6.972;2023-10-13T04:21:34;19.38;;;11.23;;
15635;SDS011;7917;50.818;6.972;2023-10-13T04:24:20;15.88;;;11.30;;
15635;SDS011;7917;50.818;6.972;2023-10-13T04:27:06;17.98;;;11.88;;
15635;SDS011;7917;50.818;6.972;2023-10-13T04:29:54;17.30;;;11.68;;
15635;SDS011;7917;50.818;6.972;2023-10-13T04:32:36;16.23;;;11.15;;
15635;SDS011;7917;50.818;6.972;2023-10-13T04:35:12;18.25;;;10.85;;
15635;SDS011;7917;50.818;6.972;2023-10-13T04:37:51;17.65;;;10.98;;
15635;SDS011;7917;50.818;6.972;2023-10-13T04:40:25;16.17;;;11.15;;
15635;SDS011;7917;50.818;6.972;2023-10-13T04:43:00;19.75;;;11.25;;
15635;SDS011;7917;50.818;6.972;2023-10-13T04:45:45;15.90;;;10.13;;
15635;SDS011;7917;50.818;6.972;2023-10-13T04:48:19;19.45;;;12.02;;
15635;SDS011;7917;50.818;6.972;2023-10-13T04:51:05;12.65;;;11.07;;
15635;SDS011;7917;50.818;6.972;2023-10-13T04:54:23;19.17;;;11.80;;
15635;SDS011;7917;50.818;6.972;2023-10-13T04:57:00;19.08;;;11.20;;
15635;SDS011;7917;50.818;6.972;2023-10-13T04:59:45;19.92;;;12.23;;
15635;SDS011;7917;50.818;6.972;2023-10-13T05:02:31;16.77;;;11.13;;
15635;SDS011;7917;50.818;6.972;2023-10-13T05:05:16;13.32;;;10.48;;
15635;SDS011;7917;50.818;6.972;2023-10-13T05:08:06;15.93;;;11.35;;
15635;SDS011;7917;50.818;6.972;2023-10-13T05:10:56;15.80;;;11.23;;
15635;SDS011;7917;50.818;6.972;2023-10-13T05:13:46;16.98;;;10.73;;
15635;SDS011;7917;50.818;6.972;2023-10-13T05:16:32;13.30;;;10.52;;
15635;SDS011;7917;50.818;6.972;2023-10-13T05:19:18;14.25;;;10.45;;
15635;SDS011;7917;50.818;6.972;2023-10-13T05:22:04;16.60;;;9.77;;
15635;SDS011;7917;50.818;6.972;2023-10-13T05:24:55;15.55;;;10.57;;
15635;SDS011;7917;50.818;6.972;2023-10-13T05:27:42;13.50;;;10.05;;
15635;SDS011;7917;50.818;6.972;2023-10-13T05:30:28;16.08;;;10.13;;
15635;SDS011;7917;50.818;6.972;2023-10-13T05:33:16;16.10;;;10.13;;
15635;SDS011;7917;50.818;6.972;2023-10-13T05:36:02;18.05;;;9.90;;
15635;SDS011;7917;50.818;6.972;2023-10-13T05:38:54;16.10;;;10.32;;
15635;SDS011;7917;50.818;6.972;2023-10-13T05:41:40;11.88;;;9.95;;
15635;SDS011;7917;50.818;6.972;2023-10-13T05:44:41;14.40;;;9.73;;
15635;SDS011;7917;50.818;6.972;2023-10-13T05:47:22;17.05;;;10.40;;
15635;SDS011;7917;50.818;6.972;2023-10-13T05:50:05;17.67;;;10.13;;
15635;SDS011;7917;50.818;6.972;2023-10-13T05:52:55;20.67;;;10.20;;
15635;SDS011;7917;50.818;6.972;2023-10-13T05:55:40;13.48;;;9.60;;
15635;SDS011;7917;50.818;6.972;2023-10-13T05:58:25;15.68;;;8.98;;
15635;SDS011;7917;50.818;6.972;2023-10-13T06:01:18;16.48;;;9.13;;
15635;SDS011;7917;50.818;6.972;2023-10-13T06:04:03;15.45;;;9.90;;
15635;SDS011;7917;50.818;6.972;2023-10-13T06:06:49;17.50;;;9.30;;
15635;SDS011;7917;50.818;6.972;2023-10-13T06:09:34;12.85;;;9.35;;
15635;SDS011;7917;50.818;6.972;2023-10-13T06:12:19;13.75;;;9.15;;
15635;SDS011;7917;50.818;6.972;2023-10-13T06:15:06;12.27;;;7.95;;
15635;SDS011;7917;50.818;6.972;2023-10-13T06:17:53;12.98;;;8.88;;
15635;SDS011;7917;50.818;6.972;2023-10-13T06:20:52;15.57;;;8.60;;
15635;SDS011;7917;50.818;6.972;2023-10-13T06:23:39;13.85;;;8.35;;
15635;SDS011;7917;50.818;6.972;2023-10-13T06:26:24;17.58;;;8.50;;
15635;SDS011;7917;50.818;6.972;2023-10-13T06:29:11;14.00;;;8.30;;
15635;SDS011;7917;50.818;6.972;2023-10-13T06:31:45;13.50;;;7.65;;
15635;SDS011;7917;50.818;6.972;2023-10-13T06:34:17;12.90;;;8.07;;
15635;SDS011;7917;50.818;6.972;2023-10-13T06:36:46;12.20;;;8.07;;
15635;SDS011;7917;50.818;6.972;2023-10-13T06:39:14;14.00;;;8.38;;
15635;SDS011;7917;50.818;6.972;2023-10-13T06:42:01;14.18;;;8.60;;
15635;SDS011;7917;50.818;6.972;2023-10-13T06:44:34;13.00;;;7.15;;
15635;SDS011;7917;50.818;6.972;2023-10-13T06:47:05;16.75;;;7.88;;
15635;SDS011;7917;50.818;6.972;2023-10-13T06:49:33;14.43;;;7.55;;
15635;SDS011;7917;50.818;6.972;2023-10-13T06:52:04;17.50;;;7.40;;
15635;SDS011;7917;50.818;6.972;2023-10-13T06:54:32;16.13;;;7.40;;
15635;SDS011;7917;50.818;6.972;2023-10-13T06:57:02;14.35;;;7.40;;
15635;SDS011;7917;50.818;6.972;2023-10-13T06:59:33;11.57;;;7.55;;
15635;SDS011;7917;50.818;6.972;2023-10-13T07:02:05;20.48;;;7.10;;
15635;SDS011;7917;50.818;6.972;2023-10-13T07:04:35;13.63;;;7.15;;
15635;SDS011;7917;50.818;6.972;2023-10-13T07:07:05;17.08;;;7.60;;
15635;SDS011;7917;50.818;6.972;2023-10-13T07:09:36;18.20;;;8.25;;
15635;SDS011;7917;50.818;6.972;2023-10-13T07:12:20;15.57;;;7.80;;
15635;SDS011;7917;50.818;6.972;2023-10-13T07:14:51;17.58;;;7.60;;
15635;SDS011;7917;50.818;6.972;2023-10-13T07:17:26;15.77;;;7.53;;
15635;SDS011;7917;50.818;6.972;2023-10-13T07:20:00;16.50;;;8.02;;
15635;SDS011;7917;50.818;6.972;2023-10-13T07:22:40;13.77;;;6.88;;
15635;SDS011;7917;50.818;6.972;2023-10-13T07:25:21;14.93;;;7.32;;
15635;SDS011;7917;50.818;6.972;2023-10-13T07:27:52;16.08;;;6.22;;
15635;SDS011;7917;50.818;6.972;2023-10-13T07:30:22;12.18;;;6.97;;
15635;SDS011;7917;50.818;6.972;2023-10-13T07:32:52;20.45;;;6.15;;
15635;SDS011;7917;50.818;6.972;2023-10-13T07:35:24;16.92;;;7.13;;
15635;SDS011;7917;50.818;6.972;2023-10-13T07:37:57;14.52;;;6.63;;
15635;SDS011;7917;50.818;6.972;2023-10-13T07:40:26;15.35;;;6.13;;
15635;SDS011;7917;50.818;6.972;2023-10-13T07:43:11;14.88;;;6.80;;
15635;SDS011;7917;50.818;6.972;2023-10-13T07:45:46;18.77;;;7.03;;
15635;SDS011;7917;50.818;6.972;2023-10-13T07:48:18;15.27;;;6.88;;
15635;SDS011;7917;50.818;6.972;2023-10-13T07:50:57;15.40;;;7.63;;
15635;SDS011;7917;50.818;6.972;2023-10-13T07:53:27;13.85;;;6.45;;
15635;SDS011;7917;50.818;6.972;2023-10-13T07:56:00;12.68;;;6.05;;
15635;SDS011;7917;50.818;6.972;2023-10-13T07:58:32;15.63;;;5.90;;
15635;SDS011;7917;50.818;6.972;2023-10-13T08:01:02;17.80;;;6.50;;
15635;SDS011;7917;50.818;6.972;2023-10-13T08:03:42;22.48;;;7.07;;
15635;SDS011;7917;50.818;6.972;2023-10-13T08:06:12;17.30;;;7.03;;
15635;SDS011;7917;50.818;6.972;2023-10-13T08:08:52;19.30;;;6.00;;
15635;SDS011;7917;50.818;6.972;2023-10-13T08:11:20;14.50;;;6.03;;
15635;SDS011;7917;50.818;6.972;2023-10-13T08:13:52;16.90;;;5.72;;
15635;SDS011;7917;50.818;6.972;2023-10-13T08:16:21;13.35;;;6.13;;
15635;SDS011;7917;50.818;6.972;2023-10-13T08:18:56;18.85;;;6.13;;
15635;SDS011;7917;50.818;6.972;2023-10-13T08:21:30;20.95;;;6.30;;
15635;SDS011;7917;50.818;6.972;2023-10-13T08:24:03;16.60;;;6.60;;
15635;SDS011;7917;50.818;6.972;2023-10-13T08:26:35;15.20;;;6.03;;
15635;SDS011;7917;50.818;6.972;2023-10-13T08:29:20;18.23;;;6.07;;
15635;SDS011;7917;50.818;6.972;2023-10-13T08:32:12;13.07;;;6.07;;
15635;SDS011;7917;50.818;6.972;2023-10-13T08:34:57;18.65;;;6.25;;
15635;SDS011;7917;50.818;6.972;2023-10-13T08:37:50;11.55;;;5.25;;
15635;SDS011;7917;50.818;6.972;2023-10-13T08:40:29;13.10;;;6.25;;
15635;SDS011;7917;50.818;6.972;2023-10-13T08:43:10;17.10;;;6.00;;
15635;SDS011;7917;50.818;6.972;2023-10-13T08:45:53;14.52;;;5.32;;
15635;SDS011;7917;50.818;6.972;2023-10-13T08:48:26;15.65;;;5.65;;
15635;SDS011;7917;50.818;6.972;2023-10-13T08:51:00;17.02;;;6.38;;
15635;SDS011;7917;50.818;6.972;2023-10-13T08:53:38;18.70;;;6.20;;
15635;SDS011;7917;50.818;6.972;2023-10-13T08:56:17;19.60;;;6.47;;
15635;SDS011;7917;50.818;6.972;2023-10-13T08:58:58;16.55;;;7.15;;
15635;SDS011;7917;50.818;6.972;2023-10-13T09:01:32;11.40;;;6.15;;
15635;SDS011;7917;50.818;6.972;2023-10-13T09:04:03;15.32;;;6.40;;
15635;SDS011;7917;50.818;6.972;2023-10-13T09:06:50;16.63;;;6.03;;
15635;SDS011;7917;50.818;6.972;2023-10-13T09:09:43;21.40;;;6.97;;
15635;SDS011;7917;50.818;6.972;2023-10-13T09:12:38;20.08;;;6.47;;
15635;SDS011;7917;50.818;6.972;2023-10-13T09:15:18;15.35;;;7.18;;
15635;SDS011;7917;50.818;6.972;2023-10-13T09:18:22;16.23;;;6.30;;
15635;SDS011;7917;50.818;6.972;2023-10-13T09:21:08;18.50;;;6.25;;
15635;SDS011;7917;50.818;6.972;2023-10-13T09:24:02;11.38;;;5.90;;
15635;SDS011;7917;50.818;6.972;2023-10-13T09:26:48;16.15;;;6.82;;
15635;SDS011;7917;50.818;6.972;2023-10-13T09:29:19;13.40;;;6.40;;
15635;SDS011;7917;50.818;6.972;2023-10-13T09:31:47;17.88;;;6.65;;
15635;SDS011;7917;50.818;6.972;2023-10-13T09:34:27;12.15;;;6.82;;
15635;SDS011;7917;50.818;6.972;2023-10-13T09:36:59;14.07;;;6.32;;
15635;SDS011;7917;50.818;6.972;2023-10-13T09:39:30;12.00;;;6.20;;
15635;SDS011;7917;50.818;6.972;2023-10-13T09:42:15;13.18;;;6.70;;
15635;SDS011;7917;50.818;6.972;2023-10-13T09:44:45;14.07;;;7.53;;
15635;SDS011;7917;50.818;6.972;2023-10-13T09:47:19;10.35;;;6.05;;
15635;SDS011;7917;50.818;6.972;2023-10-13T09:49:57;15.20;;;6.68;;
15635;SDS011;7917;50.818;6.972;2023-10-13T09:52:30;17.48;;;6.93;;
15635;SDS011;7917;50.818;6.972;2023-10-13T09:55:11;13.80;;;6.57;;
15635;SDS011;7917;50.818;6.972;2023-10-13T09:57:47;14.30;;;6.70;;
15635;SDS011;7917;50.818;6.972;2023-10-13T10:00:23;11.98;;;7.00;;
15635;SDS011;7917;50.818;6.972;2023-10-13T10:03:22;15.15;;;6.65;;
15635;SDS011;7917;50.818;6.972;2023-10-13T10:06:05;9.18;;;6.10;;
15635;SDS011;7917;50.818;6.972;2023-10-13T10:08:43;12.95;;;6.30;;
15635;SDS011;7917;50.818;6.972;2023-10-13T10:14:15;10.75;;;6.65;;
15635;SDS011;7917;50.818;6.972;2023-10-13T10:16:54;10.95;;;6.32;;
15635;SDS011;7917;50.818;6.972;2023-10-13T10:22:27;12.98;;;7.75;;
15635;SDS011;7917;50.818;6.972;2023-10-13T10:24:59;15.63;;;7.38;;
15635;SDS011;7917;50.818;6.972;2023-10-13T10:27:32;12.13;;;6.45;;
15635;SDS011;7917;50.818;6.972;2023-10-13T10:30:07;13.73;;;6.93;;
15635;SDS011;7917;50.818;6.972;2023-10-13T10:32:39;10.98;;;6.50;;
15635;SDS011;7917;50.818;6.972;2023-10-13T10:35:16;14.88;;;7.05;;
15635;SDS011;7917;50.818;6.972;2023-10-13T10:37:52;15.50;;;7.43;;
15635;SDS011;7917;50.818;6.972;2023-10-13T10:40:48;11.90;;;7.10;;
15635;SDS011;7917;50.818;6.972;2023-10-13T10:43:25;10.35;;;6.85;;
15635;SDS011;7917;50.818;6.972;2023-10-13T10:45:55;14.93;;;7.20;;
15635;SDS011;7917;50.818;6.972;2023-10-13T10:48:26;14.20;;;6.78;;
15635;SDS011;7917;50.818;6.972;2023-10-13T10:51:00;14.80;;;7.65;;
15635;SDS011;7917;50.818;6.972;2023-10-13T10:53:39;13.13;;;7.00;;
15635;SDS011;7917;50.818;6.972;2023-10-13T10:56:15;11.43;;;6.68;;
15635;SDS011;7917;50.818;6.972;2023-10-13T10:59:02;12.75;;;6.78;;
15635;SDS011;7917;50.818;6.972;2023-10-13T11:01:32;12.23;;;6.47;;
15635;SDS011;7917;50.818;6.972;2023-10-13T11:04:05;12.55;;;6.95;;
15635;SDS011;7917;50.818;6.972;2023-10-13T11:06:45;16.50;;;6.75;;
15635;SDS011;7917;50.818;6.972;2023-10-13T11:09:14;14.77;;;6.53;;
15635;SDS011;7917;50.818;6.972;2023-10-13T11:12:07;14.25;;;6.75;;
15635;SDS011;7917;50.818;6.972;2023-10-13T11:14:40;16.27;;;6.63;;
15635;SDS011;7917;50.818;6.972;2023-10-13T11:17:11;17.70;;;6.70;;
15635;SDS011;7917;50.818;6.972;2023-10-13T11:19:50;12.85;;;6.20;;
15635;SDS011;7917;50.818;6.972;2023-10-13T11:22:19;12.48;;;7.30;;
15635;SDS011;7917;50.818;6.972;2023-10-13T11:24:58;12.80;;;6.00;;
15635;SDS011;7917;50.818;6.972;2023-10-13T11:27:35;15.50;;;5.68;;
15635;SDS011;7917;50.818;6.972;2023-10-13T11:30:22;12.05;;;5.70;;
15635;SDS011;7917;50.818;6.972;2023-10-13T11:33:00;10.60;;;5.72;;
15635;SDS011;7917;50.818;6.972;2023-10-13T11:35:31;9.18;;;5.57;;
15635;SDS011;7917;50.818;6.972;2023-10-13T11:38:32;12.48;;;5.47;;
15635;SDS011;7917;50.818;6.972;2023-10-13T11:41:09;20.00;;;6.30;;
15635;SDS011;7917;50.818;6.972;2023-10-13T11:43:43;16.67;;;6.32;;
15635;SDS011;7917;50.818;6.972;2023-10-13T11:46:28;13.90;;;5.55;;
15635;SDS011;7917;50.818;6.972;2023-10-13T11:49:19;12.70;;;5.97;;
15635;SDS011;7917;50.818;6.972;2023-10-13T11:52:00;15.75;;;5.30;;
15635;SDS011;7917;50.818;6.972;2023-10-13T11:54:41;9.75;;;5.60;;
15635;SDS011;7917;50.818;6.972;2023-10-13T11:57:09;12.63;;;6.18;;
15635;SDS011;7917;50.818;6.972;2023-10-13T11:59:37;14.95;;;6.32;;
15635;SDS011;7917;50.818;6.972;2023-10-13T12:02:20;17.00;;;6.10;;
15635;SDS011;7917;50.818;6.972;2023-10-13T12:05:07;13.25;;;5.60;;
15635;SDS011;7917;50.818;6.972;2023-10-13T12:07:44;17.70;;;5.60;;
15635;SDS011;7917;50.818;6.972;2023-10-13T12:10:15;12.65;;;5.55;;
15635;SDS011;7917;50.818;6.972;2023-10-13T12:13:16;14.43;;;5.38;;
15635;SDS011;7917;50.818;6.972;2023-10-13T12:15:45;18.13;;;6.20;;
15635;SDS011;7917;50.818;6.972;2023-10-13T12:18:19;13.20;;;6.35;;
15635;SDS011;7917;50.818;6.972;2023-10-13T12:20:54;10.93;;;5.97;;
15635;SDS011;7917;50.818;6.972;2023-10-13T12:23:31;14.98;;;5.65;;
15635;SDS011;7917;50.818;6.972;2023-10-13T12:26:33;17.70;;;6.13;;
15635;SDS011;7917;50.818;6.972;2023-10-13T12:29:04;9.45;;;5.28;;
15635;SDS011;7917;50.818;6.972;2023-10-13T12:31:49;19.98;;;6.15;;
15635;SDS011;7917;50.818;6.972;2023-10-13T12:34:32;12.15;;;5.55;;
15635;SDS011;7917;50.818;6.972;2023-10-13T12:37:17;12.38;;;5.95;;
15635;SDS011;7917;50.818;6.972;2023-10-13T12:40:12;13.55;;;6.25;;
15635;SDS011;7917;50.818;6.972;2023-10-13T12:43:05;6.90;;;5.10;;
15635;SDS011;7917;50.818;6.972;2023-10-13T12:45:56;12.80;;;5.80;;
15635;SDS011;7917;50.818;6.972;2023-10-13T12:48:47;12.05;;;6.18;;
15635;SDS011;7917;50.818;6.972;2023-10-13T12:51:32;14.23;;;5.90;;
15635;SDS011;7917;50.818;6.972;2023-10-13T12:54:41;10.82;;;5.28;;
15635;SDS011;7917;50.818;6.972;2023-10-13T12:57:12;15.13;;;5.72;;
15635;SDS011;7917;50.818;6.972;2023-10-13T12:59:41;11.38;;;5.97;;
15635;SDS011;7917;50.818;6.972;2023-10-13T13:02:16;23.85;;;6.00;;
15635;SDS011;7917;50.818;6.972;2023-10-13T13:05:00;12.85;;;5.55;;
15635;SDS011;7917;50.818;6.972;2023-10-13T13:07:34;16.48;;;6.30;;
15635;SDS011;7917;50.818;6.972;2023-10-13T13:10:27;14.40;;;5.70;;
15635;SDS011;7917;50.818;6.972;2023-10-13T13:13:11;16.63;;;5.43;;
15635;SDS011;7917;50.818;6.972;2023-10-13T13:15:53;18.55;;;6.10;;
15635;SDS011;7917;50.818;6.972;2023-10-13T13:18:45;16.38;;;5.03;;
15635;SDS011;7917;50.818;6.972;2023-10-13T13:21:40;12.77;;;5.00;;
15635;SDS011;7917;50.818;6.972;2023-10-13T13:24:37;12.60;;;6.00;;
15635;SDS011;7917;50.818;6.972;2023-10-13T13:31:04;9.10;;;5.20;;
15635;SDS011;7917;50.818;6.972;2023-10-13T13:34:12;10.98;;;5.53;;
15635;SDS011;7917;50.818;6.972;2023-10-13T13:36:47;11.52;;;5.63;;
15635;SDS011;7917;50.818;6.972;2023-10-13T13:39:18;11.23;;;5.82;;
15635;SDS011;7917;50.818;6.972;2023-10-13T13:42:06;15.88;;;5.43;;
15635;SDS011;7917;50.818;6.972;2023-10-13T13:44:44;12.32;;;5.13;;
15635;SDS011;7917;50.818;6.972;2023-10-13T13:47:23;16.55;;;5.90;;
15635;SDS011;7917;50.818;6.972;2023-10-13T13:50:21;18.98;;;5.93;;
15635;SDS011;7917;50.818;6.972;2023-10-13T13:52:54;16.38;;;5.78;;
15635;SDS011;7917;50.818;6.972;2023-10-13T13:55:38;14.05;;;6.30;;
15635;SDS011;7917;50.818;6.972;2023-10-13T13:58:14;17.77;;;5.32;;
15635;SDS011;7917;50.818;6.972;2023-10-13T14:00:58;12.43;;;5.30;;
15635;SDS011;7917;50.818;6.972;2023-10-13T14:03:42;11.02;;;4.80;;
15635;SDS011;7917;50.818;6.972;2023-10-13T14:06:16;11.45;;;5.90;;
15635;SDS011;7917;50.818;6.972;2023-10-13T14:08:49;10.68;;;5.35;;
15635;SDS011;7917;50.818;6.972;2023-10-13T14:11:22;17.58;;;5.53;;
15635;SDS011;7917;50.818;6.972;2023-10-13T14:14:09;13.35;;;5.30;;
15635;SDS011;7917;50.818;6.972;2023-10-13T14:16:55;9.40;;;5.15;;
15635;SDS011;7917;50.818;6.972;2023-10-13T14:19:45;18.55;;;6.22;;
15635;SDS011;7917;50.818;6.972;2023-10-13T14:22:14;13.93;;;5.72;;
15635;SDS011;7917;50.818;6.972;2023-10-13T14:25:03;18.20;;;5.53;;
15635;SDS011;7917;50.818;6.972;2023-10-13T14:28:07;14.15;;;5.60;;
15635;SDS011;7917;50.818;6.972;2023-10-13T14:30:51;14.73;;;5.72;;
15635;SDS011;7917;50.818;6.972;2023-10-13T14:33:47;16.38;;;5.47;;
15635;SDS011;7917;50.818;6.972;2023-10-13T14:36:21;11.93;;;5.20;;
15635;SDS011;7917;50.818;6.972;2023-10-13T14:38:55;17.17;;;6.88;;
15635;SDS011;7917;50.818;6.972;2023-10-13T14:41:25;10.32;;;5.78;;
15635;SDS011;7917;50.818;6.972;2023-10-13T14:43:55;12.30;;;5.18;;
15635;SDS011;7917;50.818;6.972;2023-10-13T14:46:32;16.90;;;5.88;;
15635;SDS011;7917;50.818;6.972;2023-10-13T14:49:11;13.80;;;5.70;;
15635;SDS011;7917;50.818;6.972;2023-10-13T14:51:53;11.50;;;5.57;;
15635;SDS011;7917;50.818;6.972;2023-10-13T14:54:31;13.35;;;5.25;;
15635;SDS011;7917;50.818;6.972;2023-10-13T14:57:09;12.32;;;5.60;;
15635;SDS011;7917;50.818;6.972;2023-10-13T14:59:51;10.10;;;5.43;;
15635;SDS011;7917;50.818;6.972;2023-10-13T15:02:20;12.05;;;5.10;;
15635;SDS011;7917;50.818;6.972;2023-10-13T15:04:50;10.80;;;5.72;;
15635;SDS011;7917;50.818;6.972;2023-10-13T15:07:25;10.80;;;5.10;;
15635;SDS011;7917;50.818;6.972;2023-10-13T15:10:02;13.50;;;5.32;;
15635;SDS011;7917;50.818;6.972;2023-10-13T15:12:34;10.38;;;5.35;;
15635;SDS011;7917;50.818;6.972;2023-10-13T15:15:14;8.93;;;4.63;;
15635;SDS011;7917;50.818;6.972;2023-10-13T15:17:44;13.38;;;5.03;;
15635;SDS011;7917;50.818;6.972;2023-10-13T15:20:15;11.00;;;4.80;;
15635;SDS011;7917;50.818;6.972;2023-10-13T15:22:51;8.65;;;4.80;;
15635;SDS011;7917;50.818;6.972;2023-10-13T15:25:36;13.73;;;5.30;;
15635;SDS011;7917;50.818;6.972;2023-10-13T15:28:15;13.35;;;6.15;;
15635;SDS011;7917;50.818;6.972;2023-10-13T15:30:46;14.93;;;5.55;;
15635;SDS011;7917;50.818;6.972;2023-10-13T15:33:22;11.25;;;5.13;;
15635;SDS011;7917;50.818;6.972;2023-10-13T15:35:59;14.48;;;5.25;;
15635;SDS011;7917;50.818;6.972;2023-10-13T15:38:33;10.55;;;5.05;;
15635;SDS011;7917;50.818;6.972;2023-10-13T15:41:05;13.50;;;5.60;;
15635;SDS011;7917;50.818;6.972;2023-10-13T15:43:56;14.80;;;5.85;;
15635;SDS011;7917;50.818;6.972;2023-10-13T15:46:39;10.85;;;5.20;;
15635;SDS011;7917;50.818;6.972;2023-10-13T15:49:17;12.80;;;5.50;;
15635;SDS011;7917;50.818;6.972;2023-10-13T15:51:47;12.90;;;5.18;;
15635;SDS011;7917;50.818;6.972;2023-10-13T15:54:16;12.63;;;6.18;;
15635;SDS011;7917;50.818;6.972;2023-10-13T15:56:48;16.58;;;6.32;;
15635;SDS011;7917;50.818;6.972;2023-10-13T15:59:17;9.55;;;4.82;;
15635;SDS011;7917;50.818;6.972;2023-10-13T16:01:45;10.63;;;6.05;;